createdAt,value
2022-12-15T00:06:29.645Z,100092.00
2022-12-15T00:14:22.622Z,100107.78
2022-12-15T00:22:14.059Z,100121.66
2022-12-15T00:30:06.892Z,100110.81
2022-12-15T00:37:58.198Z,100112.94
2022-12-15T00:45:47.203Z,100112.38
2022-12-15T00:53:38.797Z,100127.66
2022-12-15T01:01:31.582Z,100125.50
2022-12-15T01:09:25.262Z,100129.44
2022-12-15T01:17:18.098Z,100130.66
2022-12-15T01:24:51.966Z,100145.59
2022-12-15T01:32:27.686Z,100134.38
2022-12-15T01:40:18.962Z,100133.69
2022-12-15T01:47:56.803Z,100136.28
2022-12-15T01:55:32.447Z,100132.88
2022-12-15T02:03:08.995Z,100140.13
2022-12-15T02:11:08.560Z,100135.13
2022-12-15T02:18:56.313Z,100151.13
2022-12-15T02:26:51.307Z,100166.44
2022-12-15T02:34:35.807Z,100175.38
2022-12-15T02:42:11.752Z,100185.88
2022-12-15T02:50:00.600Z,100199.97
2022-12-15T02:57:41.009Z,100193.50
2022-12-15T03:05:17.833Z,100210.44
2022-12-15T03:12:55.843Z,100206.34
2022-12-15T03:20:32.673Z,100212.31
2022-12-15T03:28:06.943Z,100225.25
2022-12-15T03:35:42.121Z,100229.00
2022-12-15T03:43:15.968Z,100223.97
2022-12-15T03:50:51.799Z,100222.28
2022-12-15T03:58:25.733Z,100231.16
2022-12-15T04:06:00.976Z,100239.97
2022-12-15T04:13:35.071Z,100248.66
2022-12-15T04:21:10.414Z,100261.72
2022-12-15T04:29:01.519Z,100282.09
2022-12-15T04:36:56.293Z,100283.63
2022-12-15T04:44:50.286Z,100299.41
2022-12-15T04:52:42.888Z,100311.53
2022-12-15T05:00:34.539Z,100314.22
2022-12-15T05:08:27.228Z,100324.94
2022-12-15T05:16:18.987Z,100318.84
2022-12-15T05:24:11.991Z,100335.50
2022-12-15T05:31:51.854Z,100337.63
2022-12-15T05:39:27.918Z,100350.28
2022-12-15T05:47:01.717Z,100346.78
2022-12-15T05:54:37.036Z,100361.13
2022-12-15T06:02:11.099Z,100386.31
2022-12-15T06:09:46.770Z,100395.59
2022-12-15T06:17:22.938Z,100396.41
2022-12-15T06:24:58.305Z,100391.47
2022-12-15T06:32:32.538Z,100396.91
2022-12-15T06:40:09.763Z,100396.16
2022-12-15T06:47:43.950Z,100391.91
2022-12-15T06:55:19.327Z,100408.19
2022-12-15T07:02:53.326Z,100431.59
2022-12-15T07:10:29.637Z,100445.03
2022-12-15T07:18:03.643Z,100471.28
2022-12-15T07:25:39.071Z,100474.94
2022-12-15T07:33:13.023Z,100476.22
2022-12-15T07:40:51.946Z,100501.69
2022-12-15T07:48:27.326Z,100495.91
2022-12-15T07:56:09.272Z,100504.81
2022-12-15T08:03:45.195Z,100525.13
2022-12-15T08:11:23.020Z,100531.13
2022-12-15T08:18:57.839Z,100515.59
2022-12-15T08:26:32.984Z,100529.38
2022-12-15T08:34:07.406Z,100554.84
2022-12-15T08:41:42.770Z,100555.47
2022-12-15T08:49:21.658Z,100549.56
2022-12-15T08:56:57.204Z,100544.50
2022-12-15T09:04:31.130Z,100544.41
2022-12-15T09:12:07.387Z,100553.78
2022-12-15T09:19:41.505Z,100565.09
2022-12-15T09:27:16.770Z,100553.47
2022-12-15T09:34:52.037Z,100565.41
2022-12-15T09:42:29.863Z,100551.97
2022-12-15T09:50:05.894Z,100551.50
2022-12-15T09:57:46.694Z,100563.88
2022-12-15T10:05:57.480Z,100575.06
2022-12-15T10:13:33.691Z,100572.47
2022-12-15T10:21:14.237Z,100578.97
2022-12-15T10:29:04.270Z,100576.53
2022-12-15T10:36:38.161Z,100566.47
2022-12-15T10:44:30.435Z,100566.34
2022-12-15T10:52:06.339Z,100574.22
2022-12-15T10:59:41.663Z,100586.56
2022-12-15T11:07:16.000Z,100595.47
2022-12-15T11:14:52.567Z,100592.84
2022-12-15T11:22:37.992Z,100606.16
2022-12-15T11:30:16.781Z,100586.19
2022-12-15T11:37:57.933Z,100592.94
2022-12-15T11:45:43.004Z,100595.72
2022-12-15T11:53:36.883Z,100589.75
2022-12-15T12:01:22.413Z,100586.59
2022-12-15T12:09:16.812Z,100574.22
2022-12-15T12:17:01.482Z,100568.69
2022-12-15T12:24:42.029Z,100571.31
2022-12-15T12:32:33.937Z,100573.56
2022-12-15T12:40:19.665Z,100589.41
2022-12-15T12:47:59.507Z,100593.75
2022-12-15T12:55:40.120Z,100600.44
2022-12-15T13:03:21.530Z,100608.38
2022-12-15T13:10:56.631Z,100597.41
2022-12-15T13:19:02.240Z,100586.97
2022-12-15T13:26:36.459Z,100579.41
2022-12-15T13:34:18.313Z,100569.88
2022-12-15T13:42:34.996Z,100584.16
2022-12-15T13:50:20.872Z,100583.97
2022-12-15T13:58:00.129Z,100581.16
2022-12-15T14:05:36.823Z,100583.75
2022-12-15T14:13:16.442Z,100580.84
2022-12-15T14:20:51.689Z,100579.84
2022-12-15T14:28:28.166Z,100592.09
2022-12-15T14:36:08.064Z,100587.47
2022-12-15T14:43:43.251Z,100601.25
2022-12-15T14:51:19.418Z,100608.91
2022-12-15T14:59:00.681Z,100602.56
2022-12-15T15:06:41.541Z,100611.91
2022-12-15T15:14:18.482Z,100605.38
2022-12-15T15:21:53.771Z,100606.78
2022-12-15T15:29:39.048Z,100613.22
2022-12-15T15:37:18.797Z,100609.38
2022-12-15T15:44:52.621Z,100604.47
2022-12-15T15:52:31.976Z,100607.59
2022-12-15T16:00:17.093Z,100608.88
2022-12-15T16:07:52.462Z,100605.03
2022-12-15T16:15:29.518Z,100620.38
2022-12-15T16:23:08.640Z,100630.03
2022-12-15T16:30:44.187Z,100632.78
2022-12-15T16:38:25.764Z,100636.91
2022-12-15T16:45:59.583Z,100649.84
2022-12-15T16:53:37.904Z,100651.22
2022-12-15T17:01:12.929Z,100661.91
2022-12-15T17:08:54.400Z,100673.59
2022-12-15T17:16:29.933Z,100673.19
2022-12-15T17:24:09.319Z,100676.97
2022-12-15T17:31:43.639Z,100693.63
2022-12-15T17:39:20.618Z,100716.44
2022-12-15T17:46:54.738Z,100717.81
2022-12-15T17:54:30.216Z,100710.00
2022-12-15T18:02:04.160Z,100705.59
2022-12-15T18:09:40.180Z,100693.47
2022-12-15T18:17:14.085Z,100703.91
2022-12-15T18:24:50.143Z,100701.63
2022-12-15T18:32:26.164Z,100705.81
2022-12-15T18:40:04.931Z,100725.78
2022-12-15T18:47:39.618Z,100734.81
2022-12-15T18:55:21.422Z,100713.66
2022-12-15T19:02:57.402Z,100719.53
2022-12-15T19:10:35.360Z,100730.88
2022-12-15T19:18:32.285Z,100731.31
2022-12-15T19:26:11.351Z,100736.41
2022-12-15T19:33:45.474Z,100741.13
2022-12-15T19:41:21.132Z,100747.38
2022-12-15T19:48:55.356Z,100747.94
2022-12-15T19:56:31.046Z,100746.78
2022-12-15T20:04:05.044Z,100737.72
2022-12-15T20:11:40.473Z,100731.41
2022-12-15T20:27:13.372Z,100729.22
2022-12-15T20:34:49.165Z,100727.06
2022-12-15T20:42:24.914Z,100735.56
2022-12-15T20:49:58.828Z,100731.91
2022-12-15T20:57:34.120Z,100741.63
2022-12-15T21:05:09.057Z,100752.47
2022-12-15T21:12:46.771Z,100753.44
2022-12-15T21:20:20.971Z,100757.16
2022-12-15T21:27:56.241Z,100764.84
2022-12-15T21:35:31.909Z,100759.06
2022-12-15T21:43:07.381Z,100756.00
2022-12-15T21:50:43.380Z,100747.03
2022-12-15T21:58:21.928Z,100753.47
2022-12-15T22:05:55.794Z,100749.56
2022-12-15T22:13:32.875Z,100750.91
2022-12-15T22:21:07.752Z,100746.38
2022-12-15T22:28:43.157Z,100743.28
2022-12-15T22:36:17.264Z,100748.78
2022-12-15T22:43:55.249Z,100747.63
2022-12-15T22:51:29.107Z,100740.38
2022-12-15T22:59:09.021Z,100741.06
2022-12-15T23:06:42.912Z,100754.28
2022-12-15T23:14:19.082Z,100752.34
2022-12-15T23:21:53.114Z,100748.34
2022-12-15T23:29:28.357Z,100745.56
2022-12-15T23:37:02.700Z,100759.97
2022-12-15T23:44:38.400Z,100768.03
2022-12-15T23:52:12.427Z,100776.31
2022-12-15T23:59:47.574Z,100771.91
